Time;durP1;ratioP1;P1;durP2;ratioP2;P2;SDS_P1;SDS_P2;PMS_P1;PMS_P2;Temp;Humidity;BMP_temperature;BMP_pressure;BME280_temperature;BME280_humidity;BME280_pressure;Samples;Min_cycle;Max_cycle;Signal;HPM_P1;HPM_P2
2023/07/11 00:09:01;;;;;;;9.90;4.32;;;;;;;25.42;100.00;100970.59;21170466;27;20039;-75
2023/07/11 00:19:26;;;;;;;11.20;4.07;;;;;;;25.40;100.00;100975.19;21162174;27;20097;-74
2023/07/11 00:29:48;;;;;;;13.52;4.13;;;;;;;25.41;100.00;100981.47;21178065;27;20055;-75
2023/07/11 00:40:14;;;;;;;12.70;3.40;;;;;;;25.47;100.00;100983.06;21183097;27;20046;-75
2023/07/11 00:50:37;;;;;;;12.00;3.75;;;;;;;25.41;100.00;100963.44;21179955;27;20054;-75
2023/07/11 01:01:02;;;;;;;10.07;4.00;;;;;;;25.34;100.00;100971.84;21177801;27;20048;-74
2023/07/11 01:11:27;;;;;;;10.23;3.88;;;;;;;25.25;100.00;100969.56;21199061;27;20120;-75
2023/07/11 01:21:51;;;;;;;12.90;4.72;;;;;;;25.23;100.00;100976.84;21211084;27;20738;-75
2023/07/11 01:32:16;;;;;;;12.63;4.20;;;;;;;25.16;100.00;100970.81;21203836;27;20066;-74
2023/07/11 01:42:41;;;;;;;12.00;4.57;;;;;;;25.20;100.00;100958.06;21187051;27;20502;-75
2023/07/11 01:53:04;;;;;;;12.88;3.83;;;;;;;25.16;100.00;100959.13;21207750;27;20045;-75
2023/07/11 02:03:29;;;;;;;10.95;3.90;;;;;;;25.14;100.00;100952.91;21176752;27;20075;-74
2023/07/11 02:13:52;;;;;;;13.32;3.88;;;;;;;25.13;100.00;100951.16;21180374;27;20465;-75
2023/07/11 02:24:18;;;;;;;11.20;4.30;;;;;;;25.10;100.00;100951.25;21151374;27;20051;-75
2023/07/11 02:34:40;;;;;;;10.85;4.03;;;;;;;25.07;100.00;100962.22;21192879;27;20055;-75
2023/07/11 02:45:05;;;;;;;10.68;3.88;;;;;;;25.04;100.00;100978.53;21158180;27;20070;-76
2023/07/11 02:55:28;;;;;;;12.73;4.28;;;;;;;25.01;100.00;100974.13;21169382;28;20104;-75
2023/07/11 03:05:53;;;;;;;13.63;4.40;;;;;;;24.98;100.00;100968.88;21185400;28;20051;-75
2023/07/11 03:16:16;;;;;;;12.57;4.22;;;;;;;24.99;100.00;100970.63;21210041;28;20055;-75
2023/07/11 03:26:41;;;;;;;9.60;4.05;;;;;;;25.05;100.00;100969.50;21215414;28;20613;-74
2023/07/11 03:37:04;;;;;;;9.95;4.00;;;;;;;25.24;100.00;100978.59;21171078;28;20099;-75
2023/07/11 03:47:28;;;;;;;12.73;3.65;;;;;;;25.53;100.00;100999.03;21176960;28;20054;-75
2023/07/11 03:57:50;;;;;;;10.20;3.83;;;;;;;25.87;100.00;100993.94;21181516;27;20047;-75
2023/07/11 04:08:16;;;;;;;10.13;3.47;;;;;;;26.25;100.00;101013.03;21197262;27;20551;-75
2023/07/11 04:18:39;;;;;;;13.00;4.05;;;;;;;26.66;100.00;101011.13;21181211;27;20696;-75
2023/07/11 04:29:03;;;;;;;9.05;3.50;;;;;;;27.12;100.00;101036.94;21182231;27;20104;-75
2023/07/11 04:39:25;;;;;;;12.95;3.38;;;;;;;27.59;100.00;101046.34;21212902;27;20058;-75
2023/07/11 04:49:51;;;;;;;9.10;2.92;;;;;;;28.00;100.00;101043.34;21211935;27;20043;-76
2023/07/11 05:00:14;;;;;;;9.80;3.10;;;;;;;28.38;99.18;101039.50;21183600;27;20096;-75
2023/07/11 05:10:38;;;;;;;8.35;3.00;;;;;;;28.72;94.21;101043.13;21211013;27;20499;-75
2023/07/11 05:21:01;;;;;;;8.27;2.50;;;;;;;28.98;91.69;101061.59;21175576;27;20062;-76
2023/07/11 05:31:26;;;;;;;8.70;3.30;;;;;;;29.36;84.32;101075.78;21181279;27;20048;-76
2023/07/11 05:41:52;;;;;;;9.50;3.05;;;;;;;29.81;78.32;101083.09;21171451;27;20047;-76
2023/07/11 05:52:16;;;;;;;8.70;2.70;;;;;;;30.45;76.33;101081.97;21184714;27;20130;-76
2023/07/11 06:02:39;;;;;;;8.38;3.25;;;;;;;31.00;69.08;101111.22;21186319;27;20039;-77
2023/07/11 06:13:03;;;;;;;10.55;3.50;;;;;;;31.83;59.13;101122.16;21201010;27;20035;-76
2023/07/11 06:23:25;;;;;;;8.10;3.00;;;;;;;32.48;53.75;101125.00;21284772;27;20057;-76
2023/07/11 06:33:50;;;;;;;11.18;2.90;;;;;;;33.22;50.46;101126.97;21161421;27;20543;-74
2023/07/11 06:44:13;;;;;;;12.37;2.73;;;;;;;33.77;48.29;101118.31;21190779;27;20402;-74
2023/07/11 06:54:37;;;;;;;9.93;3.47;;;;;;;34.10;45.50;101133.16;21199873;27;20036;-74
2023/07/11 07:05:00;;;;;;;7.40;2.50;;;;;;;33.93;43.20;101118.91;21192975;27;20109;-73
2023/07/11 07:15:24;;;;;;;11.00;2.95;;;;;;;34.30;41.84;101116.09;21212940;27;20518;-74
2023/07/11 07:25:51;;;;;;;7.47;2.67;;;;;;;34.62;40.43;101124.53;21175792;27;20495;-74
2023/07/11 07:36:15;;;;;;;6.22;2.63;;;;;;;34.65;39.86;101124.28;21237922;27;20046;-75
2023/07/11 07:46:38;;;;;;;6.60;2.72;;;;;;;35.01;38.95;101118.59;21318374;27;20054;-75
2023/07/11 07:57:03;;;;;;;8.65;2.40;;;;;;;34.88;38.55;101115.13;21238235;27;20372;-74
2023/07/11 08:07:26;;;;;;;10.60;2.67;;;;;;;34.62;38.26;101111.69;21231322;27;20088;-74
2023/07/11 08:17:51;;;;;;;8.50;3.05;;;;;;;34.72;37.80;101104.47;21230390;27;20460;-75
2023/07/11 08:28:13;;;;;;;7.38;2.50;;;;;;;34.85;37.42;101109.88;21229314;27;20039;-74
2023/07/11 08:38:39;;;;;;;9.23;2.92;;;;;;;35.03;36.48;101102.03;21212753;27;20069;-73
2023/07/11 08:48:46;;;;;;;9.35;2.53;;;;;;;35.25;36.26;101110.25;21195559;27;20069;-73
2023/07/11 08:59:14;;;;;;;8.95;2.65;;;;;;;35.15;35.53;101106.50;21212565;27;20087;-75
2023/07/11 09:09:37;;;;;;;7.65;2.40;;;;;;;35.19;34.85;101097.88;21200077;27;20051;-73
2023/07/11 09:19:56;;;;;;;8.52;3.10;;;;;;;35.52;34.58;101091.50;21225037;27;20686;-75
2023/07/11 09:30:25;;;;;;;6.38;2.78;;;;;;;35.90;34.33;101096.56;21222736;27;20092;-73
2023/07/11 09:40:52;;;;;;;8.52;2.42;;;;;;;36.05;33.43;101109.97;21200793;27;20491;-74
2023/07/11 09:51:25;;;;;;;9.63;2.50;;;;;;;36.00;33.00;101098.50;21214067;27;20575;-75
2023/07/11 10:01:36;;;;;;;5.65;2.63;;;;;;;36.29;32.41;101102.41;21173248;27;20050;-75
2023/07/11 10:12:01;;;;;;;7.50;3.00;;;;;;;36.21;32.21;101100.31;21175543;27;20127;-75
2023/07/11 10:22:27;;;;;;;5.90;2.75;;;;;;;36.07;32.36;101083.22;21217421;27;20052;-74
2023/07/11 10:32:47;;;;;;;5.05;2.50;;;;;;;35.99;32.98;101080.25;21215306;27;20107;-75
2023/07/11 10:43:22;;;;;;;8.00;2.60;;;;;;;36.00;32.28;101073.75;21227498;27;20077;-75
2023/07/11 10:53:48;;;;;;;7.43;2.92;;;;;;;36.39;32.14;101041.94;21197283;27;20395;-73
2023/07/11 11:04:22;;;;;;;6.55;2.45;;;;;;;36.39;32.01;101047.44;21210915;27;20058;-75
2023/07/11 11:14:42;;;;;;;5.95;2.75;;;;;;;36.60;32.75;101043.66;21223757;27;20043;-75
2023/07/11 11:25:20;;;;;;;5.25;2.35;;;;;;;36.41;31.67;101043.56;21197773;27;20047;-75
2023/07/11 11:35:55;;;;;;;8.00;2.70;;;;;;;36.39;33.67;101029.06;21202915;27;20047;-76
2023/07/11 11:46:21;;;;;;;6.32;2.58;;;;;;;36.02;34.76;101045.13;21210456;27;20055;-75
2023/07/11 11:56:46;;;;;;;6.60;2.45;;;;;;;35.55;33.89;101041.78;21218424;27;20134;-75
2023/07/11 12:07:22;;;;;;;;;;;;;;;35.10;32.57;101037.38;21195086;27;20047;-75
2023/07/11 12:17:47;;;;;;;7.80;2.53;;;;;;;35.07;33.66;101043.09;21228339;27;19923;-76
2023/07/11 12:28:24;;;;;;;5.10;2.45;;;;;;;35.14;35.21;101038.84;21226028;27;20093;-75
2023/07/11 12:38:55;;;;;;;6.43;2.78;;;;;;;35.35;35.30;101037.09;21212634;27;20395;-76
2023/07/11 12:49:24;;;;;;;5.82;2.70;;;;;;;35.55;35.08;101029.94;21209853;27;20043;-75
2023/07/11 12:59:47;;;;;;;6.53;2.70;;;;;;;35.52;35.25;101024.69;21220818;27;20044;-75
2023/07/11 13:10:20;;;;;;;6.22;2.47;;;;;;;35.43;36.06;101037.34;21226260;27;20100;-76
2023/07/11 13:20:42;;;;;;;5.45;3.00;;;;;;;35.29;36.25;101034.00;21222396;27;21866;-76
2023/07/11 13:31:22;;;;;;;9.13;3.15;;;;;;;35.15;36.66;101029.63;21209857;27;20111;-76
2023/07/11 13:41:49;;;;;;;7.03;3.75;;;;;;;35.14;37.60;101030.63;21198460;27;20062;-76
2023/07/11 13:52:25;;;;;;;9.85;2.60;;;;;;;34.91;38.09;101017.94;21208295;27;20145;-75
2023/07/11 14:02:48;;;;;;;;;;;;;;;34.85;38.05;101019.31;21198208;27;20054;-75
2023/07/11 14:13:24;;;;;;;7.28;2.75;;;;;;;34.82;37.67;101015.94;21196813;27;20391;-76
2023/07/11 14:23:47;;;;;;;5.22;2.60;;;;;;;34.76;37.50;101020.94;21201597;27;20059;-75
2023/07/11 14:34:19;;;;;;;5.38;2.38;;;;;;;34.87;37.83;101019.16;21198998;27;20050;-74
2023/07/11 14:44:33;;;;;;;8.20;2.90;;;;;;;34.84;38.20;101020.31;21194855;27;20440;-75
2023/07/11 14:54:58;;;;;;;7.50;3.03;;;;;;;34.81;38.41;101012.31;21197881;27;20053;-76
2023/07/11 15:05:24;;;;;;;5.53;2.80;;;;;;;34.17;39.24;101011.09;21242654;27;20093;-76
2023/07/11 15:15:48;;;;;;;11.10;3.90;;;;;;;33.77;40.18;101010.59;21195701;27;20047;-75
2023/07/11 15:26:11;;;;;;;8.05;3.38;;;;;;;33.12;41.52;101002.72;21197079;27;20809;-76
2023/07/11 15:36:35;;;;;;;5.43;2.70;;;;;;;32.37;43.22;101010.91;21224400;27;20039;-75
2023/07/11 15:46:59;;;;;;;4.57;2.67;;;;;;;31.84;44.11;101009.16;21188806;27;20047;-74
2023/07/11 15:57:24;;;;;;;7.68;3.10;;;;;;;31.32;45.57;101021.84;21166210;27;20078;-75
2023/07/11 16:07:48;;;;;;;8.05;3.10;;;;;;;31.06;49.63;101023.56;21190251;27;20091;-74
2023/07/11 16:18:16;;;;;;;6.85;2.97;;;;;;;30.78;55.59;101041.72;21212890;27;20047;-75
2023/07/11 16:28:38;;;;;;;8.27;3.20;;;;;;;30.38;57.56;101037.00;21220890;27;20055;-76
2023/07/11 16:39:02;;;;;;;7.13;3.10;;;;;;;30.14;57.14;101038.50;21207090;27;20066;-74
2023/07/11 16:49:25;;;;;;;7.93;3.80;;;;;;;29.87;58.39;101054.63;21163731;27;20058;-74
2023/07/11 16:59:49;;;;;;;7.55;3.22;;;;;;;29.63;60.55;101068.72;21219791;27;20119;-76
2023/07/11 17:10:12;;;;;;;8.07;3.58;;;;;;;29.48;63.60;101075.06;21197858;27;20142;-75
2023/07/11 17:20:36;;;;;;;8.60;3.65;;;;;;;29.26;67.70;101071.81;21222335;27;20054;-75
2023/07/11 17:30:58;;;;;;;8.35;3.40;;;;;;;29.02;70.98;101065.91;21220791;27;20039;-75
2023/07/11 17:41:22;;;;;;;6.68;3.70;;;;;;;28.83;73.58;101070.59;21222906;27;20043;-74
2023/07/11 17:51:45;;;;;;;7.07;3.75;;;;;;;28.67;73.68;101072.38;21222622;27;20062;-75
2023/07/11 18:02:28;;;;;;;6.78;3.50;;;;;;;28.52;74.05;101080.41;21220071;27;20110;-75
2023/07/11 18:12:51;;;;;;;7.35;3.65;;;;;;;28.41;73.57;101096.41;21217559;27;20058;-75
2023/07/11 18:23:16;;;;;;;7.25;4.05;;;;;;;28.27;80.18;101100.81;21224092;27;20258;-76
2023/07/11 18:33:39;;;;;;;6.90;4.05;;;;;;;28.12;86.46;101102.44;21205677;27;20043;-76
2023/07/11 18:44:03;;;;;;;9.75;5.05;;;;;;;28.05;87.56;101104.59;21210913;27;20103;-76
2023/07/11 18:54:26;;;;;;;9.80;4.90;;;;;;;28.00;88.20;101122.97;21202668;27;20043;-75
2023/07/11 19:04:54;;;;;;;10.48;3.97;;;;;;;27.94;89.44;101135.97;21202052;27;20050;-77
2023/07/11 19:15:19;;;;;;;7.88;4.10;;;;;;;27.76;92.96;101148.63;21229845;27;20095;-76
2023/07/11 19:25:46;;;;;;;8.68;4.28;;;;;;;27.68;93.28;101151.72;21204208;27;20470;-76
2023/07/11 19:36:15;;;;;;;12.10;4.07;;;;;;;27.54;95.96;101170.50;21205355;27;20062;-76
2023/07/11 19:46:43;;;;;;;9.52;3.95;;;;;;;27.54;96.28;101180.47;21222975;27;20047;-76
2023/07/11 19:57:06;;;;;;;;;;;;;;;27.46;95.56;101169.94;21229476;27;20063;-76
2023/07/11 20:07:30;;;;;;;6.82;4.30;;;;;;;27.51;95.38;101170.59;21212786;27;19925;-76
2023/07/11 20:17:53;;;;;;;8.65;4.30;;;;;;;27.38;95.97;101164.00;21226811;27;20071;-76
2023/07/11 20:28:19;;;;;;;10.48;4.07;;;;;;;27.24;97.89;101172.78;21212814;27;20529;-76
2023/07/11 20:38:41;;;;;;;9.10;4.78;;;;;;;27.17;97.79;101176.78;21214837;27;20058;-76
2023/07/11 20:49:06;;;;;;;8.45;4.18;;;;;;;27.10;99.82;101175.28;21225565;27;20461;-76
2023/07/11 20:59:28;;;;;;;7.57;3.75;;;;;;;27.00;100.00;101173.06;21223573;27;20043;-76
2023/07/11 21:09:53;;;;;;;7.90;4.60;;;;;;;26.89;100.00;101174.44;21203848;27;20047;-76
2023/07/11 21:20:21;;;;;;;8.77;4.70;;;;;;;26.83;100.00;101165.66;21229203;27;20044;-76
2023/07/11 21:30:45;;;;;;;11.15;4.40;;;;;;;26.75;100.00;101176.84;21224393;27;20051;-77
2023/07/11 21:41:12;;;;;;;10.25;4.60;;;;;;;26.52;100.00;101167.03;21179803;27;20083;-75
2023/07/11 21:51:37;;;;;;;8.93;4.33;;;;;;;26.31;100.00;101161.69;21217864;27;20052;-75
2023/07/11 22:02:00;;;;;;;9.85;5.07;;;;;;;26.26;100.00;101163.69;21219917;27;20064;-76
2023/07/11 22:12:24;;;;;;;9.95;5.20;;;;;;;26.16;100.00;101169.47;21208177;27;20051;-76
2023/07/11 22:22:48;;;;;;;9.60;5.07;;;;;;;26.10;100.00;101161.63;21188409;27;20112;-75
2023/07/11 22:33:14;;;;;;;7.97;4.97;;;;;;;26.03;100.00;101162.81;21188196;27;20059;-76
2023/07/11 22:43:36;;;;;;;9.13;4.63;;;;;;;25.97;100.00;101151.38;21212255;27;20058;-76
2023/07/11 22:54:00;;;;;;;9.60;5.15;;;;;;;25.92;100.00;101143.44;21213195;27;20096;-76
2023/07/11 23:04:23;;;;;;;8.50;4.38;;;;;;;25.79;100.00;101131.38;21219340;27;20134;-75
2023/07/11 23:14:47;;;;;;;8.90;5.05;;;;;;;25.82;100.00;101120.41;21205005;27;20032;-76
2023/07/11 23:25:12;;;;;;;7.85;4.65;;;;;;;25.75;100.00;101122.50;21159189;28;20082;-75
2023/07/11 23:35:37;;;;;;;8.02;4.28;;;;;;;25.65;100.00;101112.13;21143925;28;20052;-76
2023/07/11 23:46:00;;;;;;;8.05;4.05;;;;;;;25.42;100.00;101115.72;21109281;28;20048;-76
2023/07/11 23:56:28;;;;;;;6.80;4.55;;;;;;;25.40;100.00;101102.25;21145164;28;20130;-76
